createdAt,value
2019-02-10T00:00:55.979Z,0.90
2019-02-10T00:05:44.065Z,0.60
2019-02-10T00:05:53.174Z,0.53
2019-02-10T00:07:51.181Z,0.40
2019-02-10T00:09:58.529Z,0.53
2019-02-10T00:12:06.299Z,0.53
2019-02-10T00:16:38.272Z,0.50
2019-02-10T00:21:25.619Z,0.70
2019-02-10T00:23:36.016Z,0.50
2019-02-10T00:26:01.100Z,0.83
2019-02-10T00:28:08.939Z,0.60
2019-02-10T00:30:16.045Z,0.50
2019-02-10T00:32:23.865Z,0.50
2019-02-10T00:34:31.728Z,0.60
2019-02-10T00:36:40.155Z,0.63
2019-02-10T00:38:47.315Z,0.40
2019-02-10T00:40:54.474Z,0.50
2019-02-10T00:43:03.336Z,0.50
2019-02-10T00:45:11.148Z,0.30
2019-02-10T00:47:19.183Z,0.80
2019-02-10T00:49:31.651Z,0.43
2019-02-10T00:51:39.952Z,0.60
2019-02-10T00:53:48.801Z,0.50
2019-02-10T00:55:57.361Z,0.60
2019-02-10T00:58:06.268Z,0.70
2019-02-10T01:00:28.922Z,0.50
2019-02-10T01:02:46.172Z,0.60
2019-02-10T01:04:54.834Z,0.60
2019-02-10T01:07:04.641Z,0.60
2019-02-10T01:09:14.450Z,0.60
2019-02-10T01:11:27.256Z,0.50
2019-02-10T01:13:35.192Z,0.40
2019-02-10T01:15:42.571Z,0.60
2019-02-10T01:17:50.602Z,0.70
2019-02-10T01:19:59.436Z,0.43
2019-02-10T01:22:08.604Z,0.70
2019-02-10T01:24:22.164Z,0.43
2019-02-10T01:27:07.695Z,0.57
2019-02-10T01:29:25.905Z,0.60
2019-02-10T01:34:13.111Z,0.50
2019-02-10T01:36:23.179Z,0.50
2019-02-10T01:38:33.169Z,0.57
2019-02-10T01:40:53.384Z,0.50
2019-02-10T01:45:48.269Z,0.43
2019-02-10T01:47:55.924Z,0.47
2019-02-10T01:50:09.932Z,0.50
2019-02-10T01:52:19.145Z,0.60
2019-02-10T01:54:46.152Z,0.50
2019-02-10T01:56:59.251Z,0.50
2019-02-10T01:59:38.951Z,0.50
2019-02-10T02:02:01.350Z,0.97
2019-02-10T02:04:21.435Z,0.77
2019-02-10T02:06:46.036Z,0.90
2019-02-10T02:09:19.700Z,0.50
2019-02-10T02:11:22.534Z,0.60
2019-02-10T02:16:18.725Z,0.60
2019-02-10T02:18:27.116Z,0.70
2019-02-10T02:20:49.040Z,0.70
2019-02-10T02:22:56.683Z,0.77
2019-02-10T02:25:36.907Z,0.70
2019-02-10T02:27:48.120Z,0.73
2019-02-10T02:30:27.464Z,1.10
2019-02-10T02:32:44.882Z,1.10
2019-02-10T02:34:52.428Z,1.10
2019-02-10T02:37:20.015Z,1.00
2019-02-10T02:39:27.531Z,0.80
2019-02-10T02:41:47.615Z,1.00
2019-02-10T02:44:56.258Z,0.80
2019-02-10T02:47:39.035Z,0.90
2019-02-10T02:49:53.809Z,0.70
2019-02-10T02:52:12.609Z,0.60
2019-02-10T02:54:34.336Z,0.80
2019-02-10T02:56:53.952Z,0.60
2019-02-10T02:59:24.120Z,0.90
2019-02-10T03:04:33.670Z,0.60
2019-02-10T03:06:51.873Z,0.80
2019-02-10T03:09:22.124Z,0.80
2019-02-10T03:11:42.708Z,0.70
2019-02-10T03:14:00.958Z,0.80
2019-02-10T03:16:30.607Z,0.63
2019-02-10T03:18:53.238Z,0.70
2019-02-10T03:21:22.663Z,0.70
2019-02-10T03:23:50.529Z,0.80
2019-02-10T03:26:05.789Z,0.70
2019-02-10T03:28:26.359Z,0.73
2019-02-10T03:30:44.035Z,0.50
2019-02-10T03:36:03.753Z,0.47
2019-02-10T03:38:28.050Z,0.63
2019-02-10T03:40:49.544Z,0.60
2019-02-10T03:42:59.813Z,0.60
2019-02-10T03:45:32.225Z,0.40
2019-02-10T03:47:52.041Z,0.60
2019-02-10T03:50:35.687Z,0.50
2019-02-10T03:52:34.605Z,0.80
2019-02-10T03:55:11.706Z,0.70
2019-02-10T03:57:32.502Z,0.70
2019-02-10T03:59:46.099Z,0.57
2019-02-10T04:02:02.592Z,0.60
2019-02-10T04:06:45.086Z,0.80
2019-02-10T04:08:52.721Z,0.70
2019-02-10T04:11:05.363Z,0.60
2019-02-10T04:13:12.803Z,0.60
2019-02-10T04:15:38.004Z,0.70
2019-02-10T04:17:44.872Z,0.60
2019-02-10T04:20:06.501Z,0.60
2019-02-10T04:22:15.263Z,0.40
2019-02-10T04:24:27.478Z,0.47
2019-02-10T04:26:43.093Z,0.60
2019-02-10T04:29:15.783Z,0.60
2019-02-10T04:31:27.563Z,0.63
2019-02-10T04:33:36.583Z,0.63
2019-02-10T04:35:44.529Z,0.50
2019-02-10T04:37:51.833Z,0.50
2019-02-10T04:41:13.201Z,0.50
2019-02-10T04:43:59.888Z,0.80
2019-02-10T04:49:17.673Z,0.60
2019-02-10T04:52:07.949Z,0.60
2019-02-10T04:54:15.094Z,0.40
2019-02-10T04:56:22.771Z,0.53
2019-02-10T04:58:30.091Z,0.50
2019-02-10T05:00:38.917Z,0.60
2019-02-10T05:02:46.183Z,0.70
2019-02-10T05:04:53.410Z,0.70
2019-02-10T05:07:00.939Z,0.33
2019-02-10T05:09:11.145Z,0.50
2019-02-10T05:11:19.351Z,0.33
2019-02-10T05:13:44.300Z,0.50
2019-02-10T05:15:50.231Z,0.40
2019-02-10T05:17:57.742Z,0.57
2019-02-10T05:20:06.162Z,0.40
2019-02-10T05:22:13.442Z,0.53
2019-02-10T05:24:20.879Z,0.63
2019-02-10T05:26:28.143Z,0.70
2019-02-10T05:28:35.559Z,0.50
2019-02-10T05:30:42.978Z,0.77
2019-02-10T05:32:50.129Z,0.40
2019-02-10T05:34:57.273Z,0.60
2019-02-10T05:37:04.543Z,0.50
2019-02-10T05:39:11.651Z,0.60
2019-02-10T05:41:18.624Z,0.60
2019-02-10T05:43:26.090Z,0.60
2019-02-10T05:45:34.054Z,0.50
2019-02-10T05:47:41.778Z,0.60
2019-02-10T05:50:17.389Z,0.60
2019-02-10T05:52:24.652Z,0.50
2019-02-10T05:57:25.144Z,0.50
2019-02-10T05:59:38.966Z,0.50
2019-02-10T06:02:19.942Z,0.50
2019-02-10T06:05:00.610Z,0.60
2019-02-10T06:07:12.980Z,0.40
2019-02-10T06:09:20.493Z,0.60
2019-02-10T06:11:28.118Z,0.53
2019-02-10T06:13:35.681Z,0.50
2019-02-10T06:15:45.576Z,0.37
2019-02-10T06:17:56.457Z,0.43
2019-02-10T06:20:03.867Z,0.50
2019-02-10T06:22:11.266Z,0.40
2019-02-10T06:24:19.333Z,0.30
2019-02-10T06:26:27.276Z,0.93
2019-02-10T06:28:34.990Z,0.40
2019-02-10T06:30:42.363Z,0.57
2019-02-10T06:32:49.816Z,0.40
2019-02-10T06:34:57.310Z,0.60
2019-02-10T06:37:04.793Z,0.50
2019-02-10T06:39:12.686Z,0.40
2019-02-10T06:41:19.815Z,0.53
2019-02-10T06:43:27.786Z,0.30
2019-02-10T06:45:36.377Z,0.60
2019-02-10T06:47:43.977Z,0.40
2019-02-10T06:49:51.257Z,0.40
2019-02-10T06:51:58.457Z,0.53
2019-02-10T06:54:05.918Z,0.30
2019-02-10T06:56:13.579Z,0.40
2019-02-10T06:58:20.940Z,0.50
2019-02-10T07:00:38.178Z,0.40
2019-02-10T07:03:23.504Z,0.40
2019-02-10T07:05:30.489Z,0.40
2019-02-10T07:07:37.753Z,0.40
2019-02-10T07:09:45.091Z,0.50
2019-02-10T07:11:53.058Z,0.50
2019-02-10T07:14:04.380Z,0.40
2019-02-10T07:16:35.872Z,0.50
2019-02-10T07:19:17.599Z,0.40
2019-02-10T07:21:24.860Z,0.53
2019-02-10T07:24:00.752Z,0.73
2019-02-10T07:26:51.581Z,0.50
2019-02-10T07:29:22.599Z,0.87
2019-02-10T07:31:38.903Z,0.50
2019-02-10T07:34:47.710Z,0.50
2019-02-10T07:37:13.425Z,0.50
2019-02-10T07:40:03.827Z,0.30
2019-02-10T07:42:34.474Z,0.30
2019-02-10T07:44:57.660Z,0.50
2019-02-10T07:47:39.711Z,0.40
2019-02-10T07:50:06.170Z,0.40
2019-02-10T07:52:44.091Z,0.40
2019-02-10T07:55:24.907Z,0.50
2019-02-10T07:58:17.956Z,0.63
2019-02-10T08:00:52.596Z,0.40
2019-02-10T08:03:51.849Z,0.47
2019-02-10T08:06:41.445Z,0.40
2019-02-10T08:09:18.655Z,0.50
2019-02-10T08:11:33.572Z,0.50
2019-02-10T08:14:07.709Z,0.40
2019-02-10T08:16:54.877Z,0.30
2019-02-10T08:19:54.809Z,0.40
2019-02-10T08:22:37.594Z,0.50
2019-02-10T08:25:19.432Z,0.40
2019-02-10T08:28:15.544Z,0.40
2019-02-10T08:30:56.002Z,0.30
2019-02-10T08:33:13.753Z,0.40
2019-02-10T08:35:55.027Z,0.40
2019-02-10T08:38:27.349Z,0.40
2019-02-10T08:41:05.795Z,0.60
2019-02-10T08:43:53.504Z,0.47
2019-02-10T08:46:25.407Z,0.40
2019-02-10T08:49:01.958Z,0.33
2019-02-10T08:51:31.073Z,0.50
2019-02-10T08:53:41.625Z,0.40
2019-02-10T08:55:48.966Z,0.50
2019-02-10T08:57:56.051Z,0.40
2019-02-10T09:00:03.350Z,0.40
2019-02-10T09:02:11.203Z,0.47
2019-02-10T09:04:18.616Z,0.50
2019-02-10T09:06:26.224Z,0.20
2019-02-10T09:08:33.754Z,0.30
2019-02-10T09:10:41.223Z,0.60
2019-02-10T09:12:48.403Z,0.40
2019-02-10T09:14:55.708Z,0.30
2019-02-10T09:17:03.016Z,0.40
2019-02-10T09:19:10.256Z,0.20
2019-02-10T09:21:17.850Z,0.50
2019-02-10T09:23:25.056Z,0.40
2019-02-10T09:25:32.271Z,0.40
2019-02-10T09:27:39.536Z,0.40
2019-02-10T09:29:46.702Z,0.30
2019-02-10T09:31:56.803Z,0.30
2019-02-10T09:34:03.714Z,0.40
2019-02-10T09:36:10.965Z,0.40
2019-02-10T09:38:18.316Z,0.40
2019-02-10T09:40:25.417Z,0.20
2019-02-10T09:42:32.571Z,0.40
2019-02-10T09:44:39.885Z,0.43
2019-02-10T09:46:47.092Z,0.40
2019-02-10T09:48:54.296Z,0.40
2019-02-10T09:51:01.676Z,0.40
2019-02-10T09:53:09.072Z,0.40
2019-02-10T09:55:16.282Z,0.40
2019-02-10T09:57:23.580Z,0.37
2019-02-10T09:59:30.894Z,0.40
2019-02-10T10:01:38.245Z,0.30
2019-02-10T10:03:45.590Z,0.43
2019-02-10T10:05:53.073Z,0.30
2019-02-10T10:08:00.567Z,0.40
2019-02-10T10:10:07.876Z,0.33
2019-02-10T10:12:15.035Z,0.40
2019-02-10T10:14:30.521Z,0.30
2019-02-10T10:16:31.418Z,0.50
2019-02-10T10:18:39.424Z,0.30
2019-02-10T10:20:46.700Z,0.30
2019-02-10T10:22:53.857Z,0.23
2019-02-10T10:25:01.259Z,0.40
2019-02-10T10:27:08.549Z,0.30
2019-02-10T10:29:16.395Z,0.40
2019-02-10T10:31:23.815Z,0.37
2019-02-10T10:33:31.991Z,0.40
2019-02-10T10:35:39.917Z,0.40
2019-02-10T10:37:47.205Z,0.40
2019-02-10T10:39:54.840Z,0.20
2019-02-10T10:42:01.821Z,0.30
2019-02-10T10:44:08.925Z,0.50
2019-02-10T10:46:16.312Z,0.30
2019-02-10T10:48:23.673Z,0.30
2019-02-10T10:50:30.799Z,0.40
2019-02-10T10:52:38.129Z,0.30
2019-02-10T10:54:45.468Z,0.30
2019-02-10T10:56:53.353Z,0.43
2019-02-10T10:59:00.754Z,0.40
2019-02-10T11:01:08.858Z,0.30
2019-02-10T11:03:17.299Z,0.40
2019-02-10T11:05:24.847Z,0.40
2019-02-10T11:07:32.039Z,0.33
2019-02-10T11:09:39.227Z,0.30
2019-02-10T11:11:46.624Z,0.50
2019-02-10T11:13:53.763Z,0.30
2019-02-10T11:16:00.647Z,0.40
2019-02-10T11:18:07.931Z,0.60
2019-02-10T11:20:15.536Z,0.40
2019-02-10T11:22:22.317Z,0.30
2019-02-10T11:24:29.751Z,0.40
2019-02-10T11:26:37.015Z,0.40
2019-02-10T11:28:44.768Z,0.30
2019-02-10T11:30:51.902Z,0.60
2019-02-10T11:32:58.931Z,0.30
2019-02-10T11:35:06.102Z,0.30
2019-02-10T11:37:13.842Z,0.43
2019-02-10T11:39:21.602Z,0.40
2019-02-10T11:41:28.967Z,0.40
2019-02-10T11:43:36.103Z,0.40
2019-02-10T11:45:43.237Z,0.40
2019-02-10T11:47:51.345Z,0.40
2019-02-10T11:49:58.573Z,0.40
2019-02-10T11:52:05.911Z,0.40
2019-02-10T11:54:13.231Z,0.40
2019-02-10T11:56:22.099Z,0.30
2019-02-10T11:58:29.089Z,0.57
2019-02-10T12:00:36.252Z,0.30
2019-02-10T12:02:43.475Z,0.40
2019-02-10T12:04:50.695Z,0.40
2019-02-10T12:06:58.866Z,0.30
2019-02-10T12:09:06.994Z,0.40
2019-02-10T12:11:14.349Z,0.30
2019-02-10T12:13:21.623Z,0.30
2019-02-10T12:15:29.069Z,0.40
2019-02-10T12:17:36.392Z,0.30
2019-02-10T12:19:43.590Z,0.30
2019-02-10T12:21:50.978Z,0.30
2019-02-10T12:23:58.352Z,0.30
2019-02-10T12:26:05.856Z,0.30
2019-02-10T12:28:13.353Z,0.20
2019-02-10T12:30:20.551Z,0.40
2019-02-10T12:32:27.830Z,0.37
2019-02-10T12:34:35.108Z,0.40
2019-02-10T12:36:42.390Z,0.50
2019-02-10T12:38:49.556Z,0.37
2019-02-10T12:40:56.836Z,0.27
2019-02-10T12:43:05.322Z,0.40
2019-02-10T12:45:12.590Z,0.30
2019-02-10T12:47:19.727Z,0.30
2019-02-10T12:49:27.179Z,0.40
2019-02-10T12:51:34.027Z,0.30
2019-02-10T12:53:41.867Z,0.30
2019-02-10T12:55:48.962Z,0.33
2019-02-10T12:57:56.247Z,0.30
2019-02-10T13:00:03.716Z,0.20
2019-02-10T13:02:11.040Z,0.50
2019-02-10T13:04:18.240Z,0.40
2019-02-10T13:06:25.776Z,0.40
2019-02-10T13:08:33.109Z,0.20
2019-02-10T13:10:40.176Z,0.40
2019-02-10T13:12:47.589Z,0.30
2019-02-10T13:14:55.050Z,0.23
2019-02-10T13:17:03.192Z,0.30
2019-02-10T13:19:15.509Z,0.30
2019-02-10T13:21:23.199Z,0.30
2019-02-10T13:23:30.620Z,0.60
2019-02-10T13:25:38.278Z,0.30
2019-02-10T13:27:45.784Z,0.30
2019-02-10T13:29:53.261Z,0.30
2019-02-10T13:32:00.840Z,0.30
2019-02-10T13:34:08.965Z,0.30
2019-02-10T13:36:16.463Z,0.30
2019-02-10T13:38:24.763Z,0.30
2019-02-10T13:40:32.368Z,0.50
2019-02-10T13:42:44.287Z,0.40
2019-02-10T13:44:51.768Z,0.40
2019-02-10T13:46:59.995Z,0.60
2019-02-10T13:49:07.950Z,0.30
2019-02-10T13:51:22.225Z,0.30
2019-02-10T13:53:28.595Z,0.20
2019-02-10T13:55:35.670Z,0.30
2019-02-10T13:57:42.886Z,0.30
2019-02-10T13:59:50.190Z,0.50
2019-02-10T14:01:57.559Z,0.30
2019-02-10T14:04:04.970Z,0.30
2019-02-10T14:06:12.387Z,0.30
2019-02-10T14:08:19.459Z,0.40
2019-02-10T14:10:27.065Z,0.33
2019-02-10T14:12:34.493Z,0.30
2019-02-10T14:14:51.494Z,0.40
2019-02-10T14:16:59.264Z,0.30
2019-02-10T14:19:06.975Z,0.30
2019-02-10T14:21:14.457Z,0.40
2019-02-10T14:23:22.026Z,0.30
2019-02-10T14:25:30.678Z,0.50
2019-02-10T14:27:38.973Z,0.30
2019-02-10T14:29:47.102Z,0.30
2019-02-10T14:31:54.437Z,0.27
2019-02-10T14:34:03.456Z,0.30
2019-02-10T14:36:11.996Z,0.27
2019-02-10T14:38:19.127Z,0.30
2019-02-10T14:40:33.432Z,0.30
2019-02-10T14:42:35.426Z,0.33
2019-02-10T14:44:43.055Z,0.40
2019-02-10T14:46:50.438Z,0.40
2019-02-10T14:48:57.799Z,0.33
2019-02-10T14:51:05.808Z,0.30
2019-02-10T14:53:13.767Z,0.20
2019-02-10T14:55:33.821Z,0.40
2019-02-10T14:57:40.825Z,0.30
2019-02-10T14:59:48.371Z,0.27
2019-02-10T15:01:55.900Z,0.40
2019-02-10T15:04:03.776Z,0.30
2019-02-10T15:06:12.349Z,0.30
2019-02-10T15:08:36.774Z,0.37
2019-02-10T15:10:44.150Z,0.30
2019-02-10T15:12:51.868Z,0.30
2019-02-10T15:14:59.661Z,0.30
2019-02-10T15:17:10.779Z,0.30
2019-02-10T15:19:30.049Z,0.40
2019-02-10T15:21:45.051Z,0.20
2019-02-10T15:24:00.408Z,0.30
2019-02-10T15:26:39.092Z,0.30
2019-02-10T15:28:46.590Z,0.30
2019-02-10T15:31:04.511Z,0.40
2019-02-10T15:33:24.019Z,0.37
2019-02-10T15:35:54.428Z,0.37
2019-02-10T15:38:03.045Z,0.50
2019-02-10T15:40:36.757Z,0.40
2019-02-10T15:42:44.327Z,0.40
2019-02-10T15:44:51.735Z,0.30
2019-02-10T15:46:59.535Z,0.50
2019-02-10T15:49:06.915Z,0.40
2019-02-10T15:51:15.385Z,0.30
2019-02-10T15:53:22.607Z,0.30
2019-02-10T15:55:30.490Z,0.50
2019-02-10T15:57:37.794Z,0.30
2019-02-10T15:59:44.942Z,0.40
2019-02-10T16:01:52.259Z,0.40
2019-02-10T16:04:00.814Z,0.40
2019-02-10T16:06:07.791Z,0.27
2019-02-10T16:08:22.277Z,0.30
2019-02-10T16:10:32.543Z,0.40
2019-02-10T16:12:46.731Z,0.60
2019-02-10T16:15:13.500Z,0.40
2019-02-10T16:17:12.756Z,0.40
2019-02-10T16:19:20.204Z,0.40
2019-02-10T16:21:27.747Z,1.27
2019-02-10T16:23:35.250Z,0.73
2019-02-10T16:25:42.542Z,0.53
2019-02-10T16:27:49.884Z,0.33
2019-02-10T16:29:57.225Z,0.40
2019-02-10T16:32:04.599Z,0.40
2019-02-10T16:34:12.332Z,0.70
2019-02-10T16:36:19.719Z,0.40
2019-02-10T16:38:27.117Z,0.30
2019-02-10T16:40:34.569Z,0.40
2019-02-10T16:42:43.993Z,0.40
2019-02-10T16:44:51.532Z,0.50
2019-02-10T16:46:58.774Z,0.30
2019-02-10T16:49:06.915Z,1.20
2019-02-10T16:51:14.042Z,0.93
2019-02-10T16:53:21.306Z,0.60
2019-02-10T16:55:29.284Z,0.93
2019-02-10T16:57:38.672Z,1.00
2019-02-10T16:59:46.203Z,0.50
2019-02-10T17:02:05.275Z,0.73
2019-02-10T17:04:12.608Z,0.90
2019-02-10T17:06:20.694Z,1.80
2019-02-10T17:09:01.110Z,1.43
2019-02-10T17:11:39.529Z,1.43
2019-02-10T17:13:46.751Z,1.57
2019-02-10T17:16:09.671Z,1.73
2019-02-10T17:18:25.844Z,1.60
2019-02-10T17:20:33.259Z,3.23
2019-02-10T17:22:40.423Z,1.30
2019-02-10T17:25:09.200Z,1.17
2019-02-10T17:27:47.687Z,1.37
2019-02-10T17:29:35.353Z,1.98
2019-02-10T17:31:42.974Z,1.87
2019-02-10T17:33:51.355Z,1.90
2019-02-10T17:35:59.672Z,1.77
2019-02-10T17:38:08.244Z,2.43
2019-02-10T17:40:22.845Z,1.83
2019-02-10T17:42:31.548Z,2.60
2019-02-10T17:44:39.544Z,2.17
2019-02-10T17:46:55.707Z,2.70
2019-02-10T17:49:10.161Z,3.00
2019-02-10T17:51:20.828Z,5.10
2019-02-10T17:53:28.197Z,6.03
2019-02-10T17:55:43.348Z,3.20
2019-02-10T17:57:50.808Z,3.17
2019-02-10T17:59:58.083Z,2.70
2019-02-10T18:02:08.026Z,3.10
2019-02-10T18:04:37.513Z,2.67
2019-02-10T18:06:49.027Z,3.23
2019-02-10T18:08:56.624Z,2.80
2019-02-10T18:11:05.336Z,3.03
2019-02-10T18:13:38.008Z,2.47
2019-02-10T18:15:55.888Z,3.27
2019-02-10T18:18:49.667Z,2.20
2019-02-10T18:21:09.262Z,1.93
2019-02-10T18:23:36.079Z,2.57
2019-02-10T18:26:00.534Z,2.40
2019-02-10T18:28:24.746Z,3.17
2019-02-10T18:30:51.404Z,2.43
2019-02-10T18:33:21.288Z,2.47
2019-02-10T18:35:50.675Z,2.90
2019-02-10T18:38:32.684Z,2.13
2019-02-10T18:41:09.213Z,2.30
2019-02-10T18:43:38.244Z,2.37
2019-02-10T18:45:53.687Z,2.00
2019-02-10T18:48:33.060Z,1.90
2019-02-10T18:50:54.972Z,1.63
2019-02-10T18:53:12.116Z,1.63
2019-02-10T18:56:00.251Z,1.90
2019-02-10T18:58:28.258Z,1.60
2019-02-10T19:03:52.522Z,1.87
2019-02-10T19:06:35.062Z,1.70
2019-02-10T19:09:08.255Z,1.97
2019-02-10T19:11:50.746Z,1.80
2019-02-10T19:14:44.632Z,1.70
2019-02-10T19:17:27.881Z,1.80
2019-02-10T19:19:59.396Z,1.87
2019-02-10T19:22:40.288Z,1.93
2019-02-10T19:25:20.374Z,1.90
2019-02-10T19:27:53.861Z,1.77
2019-02-10T19:30:46.385Z,1.50
2019-02-10T19:33:45.564Z,1.73
2019-02-10T19:36:21.000Z,1.57
2019-02-10T19:38:54.303Z,1.93
2019-02-10T19:41:29.766Z,1.33
2019-02-10T19:43:54.750Z,1.10
2019-02-10T19:46:19.240Z,1.30
2019-02-10T19:49:05.151Z,1.00
2019-02-10T19:51:53.315Z,1.47
2019-02-10T19:54:19.937Z,1.40
2019-02-10T19:57:04.704Z,1.23
2019-02-10T19:59:56.011Z,0.87
2019-02-10T20:02:22.361Z,1.20
2019-02-10T20:08:20.217Z,1.50
2019-02-10T20:10:44.928Z,1.10
2019-02-10T20:13:09.414Z,1.17
2019-02-10T20:15:38.392Z,1.30
2019-02-10T20:18:13.158Z,1.50
2019-02-10T20:20:51.364Z,1.00
2019-02-10T20:23:10.607Z,0.67
2019-02-10T20:25:39.587Z,1.10
2019-02-10T20:27:59.644Z,1.23
2019-02-10T20:30:25.895Z,1.40
2019-02-10T20:32:50.450Z,0.93
2019-02-10T20:35:09.462Z,1.10
2019-02-10T20:37:42.593Z,0.90
2019-02-10T20:40:11.465Z,0.90
2019-02-10T20:42:25.525Z,0.97
2019-02-10T20:45:00.824Z,0.93
2019-02-10T20:47:36.057Z,1.13
2019-02-10T20:50:01.896Z,1.13
2019-02-10T20:52:26.673Z,1.20
2019-02-10T20:54:51.695Z,1.10
2019-02-10T20:57:06.010Z,1.30
2019-02-10T20:59:35.229Z,0.97
2019-02-10T21:01:52.150Z,1.10
2019-02-10T21:04:12.954Z,1.00
2019-02-10T21:06:44.604Z,1.20
2019-02-10T21:09:09.282Z,1.13
2019-02-10T21:11:32.859Z,1.00
2019-02-10T21:13:58.263Z,1.10
2019-02-10T21:16:22.956Z,1.40
2019-02-10T21:18:54.712Z,1.00
2019-02-10T21:21:20.020Z,1.23
2019-02-10T21:24:01.302Z,0.80
2019-02-10T21:26:42.725Z,0.90
2019-02-10T21:28:58.081Z,1.03
2019-02-10T21:31:23.574Z,1.00
2019-02-10T21:33:43.598Z,1.07
2019-02-10T21:36:21.460Z,0.90
2019-02-10T21:38:47.984Z,0.90
2019-02-10T21:41:23.644Z,1.00
2019-02-10T21:43:52.844Z,1.00
2019-02-10T21:46:26.115Z,1.40
2019-02-10T21:48:36.609Z,0.90
2019-02-10T21:50:44.496Z,1.07
2019-02-10T21:52:51.992Z,1.03
2019-02-10T21:54:59.610Z,0.90
2019-02-10T21:57:07.865Z,0.80
2019-02-10T21:59:15.872Z,0.90
2019-02-10T22:01:23.808Z,1.40
2019-02-10T22:03:31.267Z,0.90
2019-02-10T22:05:38.660Z,0.83
2019-02-10T22:07:45.757Z,0.80
2019-02-10T22:09:53.013Z,0.80
2019-02-10T22:12:00.225Z,0.90
2019-02-10T22:14:08.060Z,1.27
2019-02-10T22:16:15.615Z,0.80
2019-02-10T22:18:23.008Z,0.93
2019-02-10T22:20:30.283Z,1.07
2019-02-10T22:22:37.383Z,0.70
2019-02-10T22:24:44.981Z,1.20
2019-02-10T22:26:52.641Z,1.10
2019-02-10T22:29:00.212Z,0.80
2019-02-10T22:31:07.799Z,1.07
2019-02-10T22:33:15.456Z,0.80
2019-02-10T22:35:22.582Z,0.77
2019-02-10T22:37:30.098Z,0.70
2019-02-10T22:39:37.566Z,0.70
2019-02-10T22:41:44.843Z,0.70
2019-02-10T22:43:52.180Z,0.83
2019-02-10T22:45:59.636Z,0.93
2019-02-10T22:48:07.367Z,1.00
2019-02-10T22:50:15.421Z,0.97
2019-02-10T22:52:22.647Z,1.10
2019-02-10T22:54:30.005Z,1.13
2019-02-10T22:56:37.759Z,1.50
2019-02-10T22:58:45.052Z,1.30
2019-02-10T23:01:01.041Z,1.00
2019-02-10T23:03:08.350Z,1.07
2019-02-10T23:05:15.719Z,1.30
2019-02-10T23:07:22.806Z,0.83
2019-02-10T23:09:30.136Z,1.03
2019-02-10T23:11:37.594Z,1.23
2019-02-10T23:13:44.839Z,0.93
2019-02-10T23:15:52.279Z,0.97
2019-02-10T23:17:59.453Z,1.37
2019-02-10T23:20:07.175Z,0.80
2019-02-10T23:22:14.352Z,1.00
2019-02-10T23:24:21.533Z,1.13
2019-02-10T23:26:29.037Z,1.83
2019-02-10T23:28:36.408Z,2.50
2019-02-10T23:30:43.779Z,1.60
2019-02-10T23:32:51.311Z,1.63
2019-02-10T23:34:58.454Z,1.83
2019-02-10T23:37:05.700Z,2.07
2019-02-10T23:39:13.065Z,1.90
2019-02-10T23:41:20.477Z,1.60
2019-02-10T23:43:27.554Z,1.90
2019-02-10T23:45:34.860Z,1.90
2019-02-10T23:47:42.055Z,2.13
2019-02-10T23:49:49.283Z,1.93
2019-02-10T23:51:56.585Z,1.70
2019-02-10T23:54:03.721Z,1.70
2019-02-10T23:56:10.916Z,1.77
2019-02-10T23:58:18.311Z,1.97
